sensor_id;sensor_type;location;lat;lon;timestamp;P1;durP1;ratioP1;P2;durP2;ratioP2
55314;SDS011;41619;42.816;23.226;2023-07-20T00:02:13;8.98;;;2.67;;
55314;SDS011;41619;42.816;23.226;2023-07-20T00:04:39;10.77;;;3.40;;
55314;SDS011;41619;42.816;23.226;2023-07-20T00:07:04;11.10;;;3.13;;
55314;SDS011;41619;42.816;23.226;2023-07-20T00:09:30;12.63;;;3.75;;
55314;SDS011;41619;42.816;23.226;2023-07-20T00:11:55;15.82;;;3.38;;
55314;SDS011;41619;42.816;23.226;2023-07-20T00:14:21;15.95;;;3.80;;
55314;SDS011;41619;42.816;23.226;2023-07-20T00:16:47;14.23;;;3.38;;
55314;SDS011;41619;42.816;23.226;2023-07-20T00:19:14;11.00;;;3.00;;
55314;SDS011;41619;42.816;23.226;2023-07-20T00:21:41;14.35;;;3.30;;
55314;SDS011;41619;42.816;23.226;2023-07-20T00:24:07;11.88;;;3.20;;
55314;SDS011;41619;42.816;23.226;2023-07-20T00:26:32;15.35;;;3.35;;
55314;SDS011;41619;42.816;23.226;2023-07-20T00:28:58;9.52;;;3.13;;
55314;SDS011;41619;42.816;23.226;2023-07-20T00:31:23;11.52;;;3.03;;
55314;SDS011;41619;42.816;23.226;2023-07-20T00:33:49;15.65;;;3.40;;
55314;SDS011;41619;42.816;23.226;2023-07-20T00:36:14;15.50;;;3.10;;
55314;SDS011;41619;42.816;23.226;2023-07-20T00:38:39;12.93;;;3.10;;
55314;SDS011;41619;42.816;23.226;2023-07-20T00:41:05;7.78;;;2.85;;
55314;SDS011;41619;42.816;23.226;2023-07-20T00:43:31;14.45;;;3.65;;
55314;SDS011;41619;42.816;23.226;2023-07-20T00:45:56;9.10;;;3.13;;
55314;SDS011;41619;42.816;23.226;2023-07-20T00:48:22;12.52;;;2.97;;
55314;SDS011;41619;42.816;23.226;2023-07-20T00:50:48;10.13;;;3.00;;
55314;SDS011;41619;42.816;23.226;2023-07-20T00:53:15;11.05;;;2.97;;
55314;SDS011;41619;42.816;23.226;2023-07-20T00:55:40;13.57;;;2.95;;
55314;SDS011;41619;42.816;23.226;2023-07-20T00:58:06;13.60;;;3.08;;
55314;SDS011;41619;42.816;23.226;2023-07-20T01:00:32;8.90;;;3.60;;
55314;SDS011;41619;42.816;23.226;2023-07-20T01:02:57;12.73;;;2.78;;
55314;SDS011;41619;42.816;23.226;2023-07-20T01:05:24;11.35;;;3.00;;
55314;SDS011;41619;42.816;23.226;2023-07-20T01:08:15;13.02;;;3.03;;
55314;SDS011;41619;42.816;23.226;2023-07-20T01:11:04;13.55;;;2.90;;
55314;SDS011;41619;42.816;23.226;2023-07-20T01:13:35;15.13;;;3.50;;
55314;SDS011;41619;42.816;23.226;2023-07-20T01:16:02;8.63;;;2.63;;
55314;SDS011;41619;42.816;23.226;2023-07-20T01:18:27;12.48;;;3.03;;
55314;SDS011;41619;42.816;23.226;2023-07-20T01:21:16;10.30;;;2.80;;
55314;SDS011;41619;42.816;23.226;2023-07-20T01:29:22;10.93;;;3.55;;
55314;SDS011;41619;42.816;23.226;2023-07-20T01:31:49;9.55;;;3.35;;
55314;SDS011;41619;42.816;23.226;2023-07-20T01:34:18;11.25;;;3.60;;
55314;SDS011;41619;42.816;23.226;2023-07-20T01:36:44;8.57;;;2.70;;
55314;SDS011;41619;42.816;23.226;2023-07-20T01:39:11;17.30;;;3.17;;
55314;SDS011;41619;42.816;23.226;2023-07-20T01:41:37;6.88;;;2.90;;
55314;SDS011;41619;42.816;23.226;2023-07-20T01:44:03;11.38;;;3.65;;
55314;SDS011;41619;42.816;23.226;2023-07-20T01:46:29;9.60;;;3.38;;
55314;SDS011;41619;42.816;23.226;2023-07-20T01:48:55;16.52;;;3.50;;
55314;SDS011;41619;42.816;23.226;2023-07-20T01:51:20;12.38;;;3.30;;
55314;SDS011;41619;42.816;23.226;2023-07-20T01:53:46;11.45;;;3.70;;
55314;SDS011;41619;42.816;23.226;2023-07-20T01:56:11;10.30;;;3.80;;
55314;SDS011;41619;42.816;23.226;2023-07-20T01:58:37;14.57;;;3.38;;
55314;SDS011;41619;42.816;23.226;2023-07-20T02:01:03;14.75;;;4.13;;
55314;SDS011;41619;42.816;23.226;2023-07-20T02:03:28;10.13;;;3.42;;
55314;SDS011;41619;42.816;23.226;2023-07-20T02:05:54;11.77;;;3.63;;
55314;SDS011;41619;42.816;23.226;2023-07-20T02:08:19;12.73;;;3.05;;
55314;SDS011;41619;42.816;23.226;2023-07-20T02:10:46;13.20;;;3.38;;
55314;SDS011;41619;42.816;23.226;2023-07-20T02:13:12;11.32;;;3.53;;
55314;SDS011;41619;42.816;23.226;2023-07-20T02:15:37;14.98;;;3.60;;
55314;SDS011;41619;42.816;23.226;2023-07-20T02:18:03;17.20;;;4.38;;
55314;SDS011;41619;42.816;23.226;2023-07-20T02:20:28;13.23;;;4.05;;
55314;SDS011;41619;42.816;23.226;2023-07-20T02:22:54;14.48;;;3.83;;
55314;SDS011;41619;42.816;23.226;2023-07-20T02:25:19;15.85;;;4.93;;
55314;SDS011;41619;42.816;23.226;2023-07-20T02:27:45;14.27;;;4.00;;
55314;SDS011;41619;42.816;23.226;2023-07-20T02:30:10;17.27;;;5.43;;
55314;SDS011;41619;42.816;23.226;2023-07-20T02:32:36;9.88;;;3.97;;
55314;SDS011;41619;42.816;23.226;2023-07-20T02:35:01;12.75;;;3.60;;
55314;SDS011;41619;42.816;23.226;2023-07-20T02:37:28;11.73;;;4.40;;
55314;SDS011;41619;42.816;23.226;2023-07-20T02:39:54;13.10;;;4.05;;
55314;SDS011;41619;42.816;23.226;2023-07-20T02:42:19;10.80;;;3.80;;
55314;SDS011;41619;42.816;23.226;2023-07-20T02:44:47;20.23;;;4.60;;
55314;SDS011;41619;42.816;23.226;2023-07-20T02:47:13;10.43;;;3.92;;
55314;SDS011;41619;42.816;23.226;2023-07-20T02:49:38;8.48;;;4.18;;
55314;SDS011;41619;42.816;23.226;2023-07-20T02:52:04;17.00;;;4.63;;
55314;SDS011;41619;42.816;23.226;2023-07-20T02:54:30;27.88;;;4.88;;
55314;SDS011;41619;42.816;23.226;2023-07-20T02:56:55;20.33;;;4.47;;
55314;SDS011;41619;42.816;23.226;2023-07-20T02:59:21;21.27;;;4.85;;
55314;SDS011;41619;42.816;23.226;2023-07-20T03:01:47;19.65;;;6.72;;
55314;SDS011;41619;42.816;23.226;2023-07-20T03:04:12;14.75;;;4.70;;
55314;SDS011;41619;42.816;23.226;2023-07-20T03:06:38;24.48;;;5.18;;
55314;SDS011;41619;42.816;23.226;2023-07-20T03:09:03;17.33;;;4.88;;
55314;SDS011;41619;42.816;23.226;2023-07-20T03:11:29;17.65;;;5.18;;
55314;SDS011;41619;42.816;23.226;2023-07-20T03:13:55;11.95;;;4.78;;
55314;SDS011;41619;42.816;23.226;2023-07-20T03:16:21;22.45;;;5.05;;
55314;SDS011;41619;42.816;23.226;2023-07-20T03:18:46;13.15;;;5.10;;
55314;SDS011;41619;42.816;23.226;2023-07-20T03:21:12;19.15;;;5.43;;
55314;SDS011;41619;42.816;23.226;2023-07-20T03:23:38;12.93;;;4.95;;
55314;SDS011;41619;42.816;23.226;2023-07-20T03:26:04;17.08;;;5.38;;
55314;SDS011;41619;42.816;23.226;2023-07-20T03:28:30;22.13;;;5.47;;
55314;SDS011;41619;42.816;23.226;2023-07-20T03:30:55;21.33;;;5.03;;
55314;SDS011;41619;42.816;23.226;2023-07-20T03:33:22;10.73;;;4.50;;
55314;SDS011;41619;42.816;23.226;2023-07-20T03:35:50;16.02;;;4.68;;
55314;SDS011;41619;42.816;23.226;2023-07-20T03:38:15;27.95;;;5.85;;
55314;SDS011;41619;42.816;23.226;2023-07-20T03:40:48;25.38;;;5.40;;
55314;SDS011;41619;42.816;23.226;2023-07-20T03:43:18;20.15;;;5.05;;
55314;SDS011;41619;42.816;23.226;2023-07-20T03:45:44;20.02;;;5.53;;
55314;SDS011;41619;42.816;23.226;2023-07-20T03:48:10;18.08;;;6.03;;
55314;SDS011;41619;42.816;23.226;2023-07-20T03:50:36;25.48;;;6.03;;
55314;SDS011;41619;42.816;23.226;2023-07-20T03:53:02;17.60;;;6.15;;
55314;SDS011;41619;42.816;23.226;2023-07-20T03:55:27;25.17;;;6.00;;
55314;SDS011;41619;42.816;23.226;2023-07-20T03:57:53;25.25;;;6.20;;
55314;SDS011;41619;42.816;23.226;2023-07-20T04:00:18;21.35;;;5.97;;
55314;SDS011;41619;42.816;23.226;2023-07-20T04:02:44;18.80;;;5.65;;
55314;SDS011;41619;42.816;23.226;2023-07-20T04:05:09;18.75;;;6.30;;
55314;SDS011;41619;42.816;23.226;2023-07-20T04:07:35;17.20;;;5.72;;
55314;SDS011;41619;42.816;23.226;2023-07-20T04:10:00;23.10;;;6.22;;
55314;SDS011;41619;42.816;23.226;2023-07-20T04:12:26;17.45;;;6.30;;
55314;SDS011;41619;42.816;23.226;2023-07-20T04:14:51;19.05;;;5.68;;
55314;SDS011;41619;42.816;23.226;2023-07-20T04:17:16;17.25;;;5.45;;
55314;SDS011;41619;42.816;23.226;2023-07-20T04:19:42;24.17;;;7.40;;
55314;SDS011;41619;42.816;23.226;2023-07-20T04:22:08;17.33;;;5.45;;
55314;SDS011;41619;42.816;23.226;2023-07-20T04:24:33;20.35;;;6.50;;
55314;SDS011;41619;42.816;23.226;2023-07-20T04:26:58;22.48;;;6.03;;
55314;SDS011;41619;42.816;23.226;2023-07-20T04:29:24;17.20;;;6.22;;
55314;SDS011;41619;42.816;23.226;2023-07-20T04:31:49;17.40;;;6.78;;
55314;SDS011;41619;42.816;23.226;2023-07-20T04:34:14;25.83;;;6.05;;
55314;SDS011;41619;42.816;23.226;2023-07-20T04:36:40;18.42;;;6.47;;
55314;SDS011;41619;42.816;23.226;2023-07-20T04:39:05;26.25;;;6.47;;
55314;SDS011;41619;42.816;23.226;2023-07-20T04:41:33;16.60;;;6.00;;
55314;SDS011;41619;42.816;23.226;2023-07-20T04:43:58;23.63;;;6.13;;
55314;SDS011;41619;42.816;23.226;2023-07-20T04:46:23;19.30;;;6.10;;
55314;SDS011;41619;42.816;23.226;2023-07-20T04:48:49;14.32;;;6.03;;
55314;SDS011;41619;42.816;23.226;2023-07-20T04:51:14;23.13;;;7.07;;
55314;SDS011;41619;42.816;23.226;2023-07-20T04:53:40;21.30;;;6.63;;
55314;SDS011;41619;42.816;23.226;2023-07-20T04:56:05;15.18;;;5.82;;
55314;SDS011;41619;42.816;23.226;2023-07-20T04:58:30;31.27;;;7.07;;
55314;SDS011;41619;42.816;23.226;2023-07-20T05:00:56;15.85;;;5.38;;
55314;SDS011;41619;42.816;23.226;2023-07-20T05:03:21;17.80;;;5.80;;
55314;SDS011;41619;42.816;23.226;2023-07-20T05:05:47;35.92;;;7.40;;
55314;SDS011;41619;42.816;23.226;2023-07-20T05:08:13;22.58;;;5.47;;
55314;SDS011;41619;42.816;23.226;2023-07-20T05:10:38;16.63;;;5.53;;
55314;SDS011;41619;42.816;23.226;2023-07-20T05:13:04;18.63;;;6.07;;
55314;SDS011;41619;42.816;23.226;2023-07-20T05:15:29;14.35;;;5.90;;
55314;SDS011;41619;42.816;23.226;2023-07-20T05:17:55;20.95;;;5.38;;
55314;SDS011;41619;42.816;23.226;2023-07-20T05:20:21;13.50;;;4.90;;
55314;SDS011;41619;42.816;23.226;2023-07-20T05:22:47;16.75;;;5.30;;
55314;SDS011;41619;42.816;23.226;2023-07-20T05:25:13;13.02;;;4.72;;
55314;SDS011;41619;42.816;23.226;2023-07-20T05:27:39;13.80;;;4.95;;
55314;SDS011;41619;42.816;23.226;2023-07-20T05:30:05;14.30;;;4.65;;
55314;SDS011;41619;42.816;23.226;2023-07-20T05:32:32;22.13;;;5.38;;
55314;SDS011;41619;42.816;23.226;2023-07-20T05:34:58;18.55;;;4.57;;
55314;SDS011;41619;42.816;23.226;2023-07-20T05:37:25;16.60;;;4.68;;
55314;SDS011;41619;42.816;23.226;2023-07-20T05:39:50;25.13;;;4.80;;
55314;SDS011;41619;42.816;23.226;2023-07-20T05:42:16;13.20;;;4.72;;
55314;SDS011;41619;42.816;23.226;2023-07-20T05:44:41;15.68;;;4.20;;
55314;SDS011;41619;42.816;23.226;2023-07-20T05:47:07;80.80;;;8.90;;
55314;SDS011;41619;42.816;23.226;2023-07-20T05:49:34;360.48;;;24.25;;
55314;SDS011;41619;42.816;23.226;2023-07-20T05:51:59;257.73;;;18.02;;
55314;SDS011;41619;42.816;23.226;2023-07-20T05:54:26;65.38;;;7.35;;
55314;SDS011;41619;42.816;23.226;2023-07-20T05:56:52;35.38;;;4.82;;
55314;SDS011;41619;42.816;23.226;2023-07-20T05:59:17;17.58;;;3.97;;
55314;SDS011;41619;42.816;23.226;2023-07-20T06:01:44;23.98;;;5.82;;
55314;SDS011;41619;42.816;23.226;2023-07-20T06:04:10;21.25;;;4.60;;
55314;SDS011;41619;42.816;23.226;2023-07-20T06:06:35;20.73;;;5.03;;
55314;SDS011;41619;42.816;23.226;2023-07-20T06:09:00;21.25;;;4.97;;
55314;SDS011;41619;42.816;23.226;2023-07-20T06:11:29;15.82;;;4.50;;
55314;SDS011;41619;42.816;23.226;2023-07-20T06:13:55;22.63;;;5.55;;
55314;SDS011;41619;42.816;23.226;2023-07-20T06:16:21;20.42;;;5.13;;
55314;SDS011;41619;42.816;23.226;2023-07-20T06:18:47;24.05;;;5.28;;
55314;SDS011;41619;42.816;23.226;2023-07-20T06:21:12;19.10;;;5.47;;
55314;SDS011;41619;42.816;23.226;2023-07-20T06:23:38;20.02;;;4.90;;
55314;SDS011;41619;42.816;23.226;2023-07-20T06:26:05;15.32;;;5.50;;
55314;SDS011;41619;42.816;23.226;2023-07-20T06:28:31;17.45;;;4.72;;
55314;SDS011;41619;42.816;23.226;2023-07-20T06:31:00;16.67;;;5.13;;
55314;SDS011;41619;42.816;23.226;2023-07-20T06:33:26;15.85;;;4.25;;
55314;SDS011;41619;42.816;23.226;2023-07-20T06:35:52;18.15;;;4.43;;
55314;SDS011;41619;42.816;23.226;2023-07-20T06:38:18;20.13;;;4.95;;
55314;SDS011;41619;42.816;23.226;2023-07-20T06:40:45;13.25;;;4.63;;
55314;SDS011;41619;42.816;23.226;2023-07-20T06:43:11;23.27;;;5.10;;
55314;SDS011;41619;42.816;23.226;2023-07-20T06:45:37;16.92;;;4.68;;
55314;SDS011;41619;42.816;23.226;2023-07-20T06:48:02;14.85;;;4.47;;
55314;SDS011;41619;42.816;23.226;2023-07-20T06:50:28;18.75;;;4.38;;
55314;SDS011;41619;42.816;23.226;2023-07-20T06:52:53;20.00;;;4.85;;
55314;SDS011;41619;42.816;23.226;2023-07-20T06:55:19;14.15;;;4.43;;
55314;SDS011;41619;42.816;23.226;2023-07-20T06:57:44;15.15;;;4.88;;
55314;SDS011;41619;42.816;23.226;2023-07-20T07:00:10;16.13;;;4.20;;
55314;SDS011;41619;42.816;23.226;2023-07-20T07:02:36;18.80;;;4.82;;
55314;SDS011;41619;42.816;23.226;2023-07-20T07:05:01;14.75;;;4.32;;
55314;SDS011;41619;42.816;23.226;2023-07-20T07:07:27;18.95;;;4.57;;
55314;SDS011;41619;42.816;23.226;2023-07-20T07:09:52;17.25;;;5.28;;
55314;SDS011;41619;42.816;23.226;2023-07-20T07:12:17;14.68;;;4.50;;
55314;SDS011;41619;42.816;23.226;2023-07-20T07:14:43;23.90;;;4.80;;
55314;SDS011;41619;42.816;23.226;2023-07-20T07:17:08;18.80;;;4.55;;
55314;SDS011;41619;42.816;23.226;2023-07-20T07:19:33;17.77;;;4.45;;
55314;SDS011;41619;42.816;23.226;2023-07-20T07:21:59;19.33;;;4.30;;
55314;SDS011;41619;42.816;23.226;2023-07-20T07:24:24;17.02;;;4.10;;
55314;SDS011;41619;42.816;23.226;2023-07-20T07:26:49;20.23;;;4.30;;
55314;SDS011;41619;42.816;23.226;2023-07-20T07:29:15;12.93;;;4.10;;
55314;SDS011;41619;42.816;23.226;2023-07-20T07:31:40;11.85;;;4.68;;
55314;SDS011;41619;42.816;23.226;2023-07-20T07:34:05;13.23;;;3.70;;
55314;SDS011;41619;42.816;23.226;2023-07-20T07:36:31;20.33;;;3.92;;
55314;SDS011;41619;42.816;23.226;2023-07-20T07:38:57;16.13;;;4.28;;
55314;SDS011;41619;42.816;23.226;2023-07-20T07:41:23;10.70;;;3.97;;
55314;SDS011;41619;42.816;23.226;2023-07-20T07:43:48;17.15;;;4.40;;
55314;SDS011;41619;42.816;23.226;2023-07-20T07:46:14;17.50;;;5.05;;
55314;SDS011;41619;42.816;23.226;2023-07-20T07:48:39;18.98;;;4.65;;
55314;SDS011;41619;42.816;23.226;2023-07-20T07:51:05;8.40;;;4.20;;
55314;SDS011;41619;42.816;23.226;2023-07-20T07:53:31;16.63;;;4.50;;
55314;SDS011;41619;42.816;23.226;2023-07-20T07:55:57;18.77;;;4.75;;
55314;SDS011;41619;42.816;23.226;2023-07-20T07:58:23;35.03;;;5.80;;
55314;SDS011;41619;42.816;23.226;2023-07-20T08:00:49;60.50;;;6.07;;
55314;SDS011;41619;42.816;23.226;2023-07-20T08:03:14;17.27;;;3.78;;
55314;SDS011;41619;42.816;23.226;2023-07-20T08:05:39;35.03;;;3.67;;
55314;SDS011;41619;42.816;23.226;2023-07-20T08:08:05;23.38;;;3.80;;
55314;SDS011;41619;42.816;23.226;2023-07-20T08:10:30;13.38;;;3.42;;
55314;SDS011;41619;42.816;23.226;2023-07-20T08:12:56;15.35;;;3.28;;
55314;SDS011;41619;42.816;23.226;2023-07-20T08:15:22;9.55;;;3.10;;
55314;SDS011;41619;42.816;23.226;2023-07-20T08:17:47;22.85;;;3.97;;
55314;SDS011;41619;42.816;23.226;2023-07-20T08:20:13;12.10;;;3.05;;
55314;SDS011;41619;42.816;23.226;2023-07-20T08:22:39;12.85;;;3.20;;
55314;SDS011;41619;42.816;23.226;2023-07-20T08:25:08;19.58;;;3.83;;
55314;SDS011;41619;42.816;23.226;2023-07-20T08:27:34;10.80;;;3.33;;
55314;SDS011;41619;42.816;23.226;2023-07-20T08:30:00;11.48;;;2.88;;
55314;SDS011;41619;42.816;23.226;2023-07-20T08:32:25;17.73;;;2.60;;
55314;SDS011;41619;42.816;23.226;2023-07-20T08:34:51;15.45;;;3.33;;
55314;SDS011;41619;42.816;23.226;2023-07-20T08:37:16;15.27;;;3.40;;
55314;SDS011;41619;42.816;23.226;2023-07-20T08:39:42;28.45;;;3.50;;
55314;SDS011;41619;42.816;23.226;2023-07-20T08:42:07;13.90;;;3.25;;
55314;SDS011;41619;42.816;23.226;2023-07-20T08:44:34;10.73;;;3.10;;
55314;SDS011;41619;42.816;23.226;2023-07-20T08:47:03;11.60;;;3.20;;
55314;SDS011;41619;42.816;23.226;2023-07-20T08:49:31;8.13;;;3.17;;
55314;SDS011;41619;42.816;23.226;2023-07-20T08:51:57;12.52;;;2.92;;
55314;SDS011;41619;42.816;23.226;2023-07-20T08:54:24;13.48;;;3.22;;
55314;SDS011;41619;42.816;23.226;2023-07-20T08:56:57;11.63;;;2.95;;
55314;SDS011;41619;42.816;23.226;2023-07-20T08:59:29;11.93;;;3.47;;
55314;SDS011;41619;42.816;23.226;2023-07-20T09:01:58;13.88;;;3.58;;
55314;SDS011;41619;42.816;23.226;2023-07-20T09:06:49;11.35;;;3.10;;
55314;SDS011;41619;42.816;23.226;2023-07-20T09:09:15;10.30;;;2.92;;
55314;SDS011;41619;42.816;23.226;2023-07-20T09:11:41;12.70;;;3.00;;
55314;SDS011;41619;42.816;23.226;2023-07-20T09:14:07;11.80;;;3.28;;
55314;SDS011;41619;42.816;23.226;2023-07-20T09:19:29;10.95;;;2.90;;
55314;SDS011;41619;42.816;23.226;2023-07-20T09:21:54;5.60;;;2.72;;
55314;SDS011;41619;42.816;23.226;2023-07-20T09:24:20;7.47;;;2.65;;
55314;SDS011;41619;42.816;23.226;2023-07-20T09:26:46;11.00;;;2.63;;
55314;SDS011;41619;42.816;23.226;2023-07-20T09:29:19;11.60;;;3.10;;
55314;SDS011;41619;42.816;23.226;2023-07-20T09:32:03;12.85;;;3.65;;
55314;SDS011;41619;42.816;23.226;2023-07-20T09:34:32;7.38;;;2.35;;
55314;SDS011;41619;42.816;23.226;2023-07-20T09:36:58;11.88;;;2.47;;
55314;SDS011;41619;42.816;23.226;2023-07-20T09:39:24;12.20;;;2.70;;
55314;SDS011;41619;42.816;23.226;2023-07-20T09:41:50;11.52;;;3.05;;
55314;SDS011;41619;42.816;23.226;2023-07-20T09:44:16;11.55;;;2.70;;
55314;SDS011;41619;42.816;23.226;2023-07-20T09:46:46;8.25;;;3.13;;
55314;SDS011;41619;42.816;23.226;2023-07-20T09:49:16;17.48;;;2.80;;
55314;SDS011;41619;42.816;23.226;2023-07-20T09:51:43;12.93;;;3.10;;
55314;SDS011;41619;42.816;23.226;2023-07-20T09:54:10;10.18;;;2.67;;
55314;SDS011;41619;42.816;23.226;2023-07-20T09:56:38;12.18;;;2.97;;
55314;SDS011;41619;42.816;23.226;2023-07-20T09:59:05;9.55;;;3.03;;
55314;SDS011;41619;42.816;23.226;2023-07-20T10:01:31;6.80;;;2.53;;
55314;SDS011;41619;42.816;23.226;2023-07-20T10:06:28;9.73;;;2.63;;
55314;SDS011;41619;42.816;23.226;2023-07-20T10:08:55;16.88;;;3.00;;
55314;SDS011;41619;42.816;23.226;2023-07-20T10:11:29;18.70;;;3.00;;
55314;SDS011;41619;42.816;23.226;2023-07-20T10:13:56;9.98;;;3.75;;
55314;SDS011;41619;42.816;23.226;2023-07-20T10:19:02;7.68;;;2.78;;
55314;SDS011;41619;42.816;23.226;2023-07-20T10:21:31;7.43;;;2.67;;
55314;SDS011;41619;42.816;23.226;2023-07-20T10:24:00;11.38;;;3.10;;
55314;SDS011;41619;42.816;23.226;2023-07-20T10:26:26;16.35;;;3.00;;
55314;SDS011;41619;42.816;23.226;2023-07-20T10:28:51;10.35;;;2.90;;
55314;SDS011;41619;42.816;23.226;2023-07-20T10:31:18;11.00;;;2.47;;
55314;SDS011;41619;42.816;23.226;2023-07-20T10:33:44;12.32;;;3.30;;
55314;SDS011;41619;42.816;23.226;2023-07-20T10:36:11;11.65;;;2.60;;
55314;SDS011;41619;42.816;23.226;2023-07-20T10:43:43;7.50;;;2.47;;
55314;SDS011;41619;42.816;23.226;2023-07-20T10:46:10;13.43;;;2.78;;
55314;SDS011;41619;42.816;23.226;2023-07-20T10:48:44;11.52;;;3.20;;
55314;SDS011;41619;42.816;23.226;2023-07-20T10:51:29;15.02;;;2.97;;
55314;SDS011;41619;42.816;23.226;2023-07-20T10:53:58;13.32;;;2.85;;
55314;SDS011;41619;42.816;23.226;2023-07-20T10:56:26;16.73;;;2.58;;
55314;SDS011;41619;42.816;23.226;2023-07-20T10:59:00;14.80;;;3.28;;
55314;SDS011;41619;42.816;23.226;2023-07-20T11:01:42;11.52;;;2.50;;
55314;SDS011;41619;42.816;23.226;2023-07-20T11:04:09;8.63;;;2.58;;
55314;SDS011;41619;42.816;23.226;2023-07-20T11:06:34;16.25;;;2.42;;
55314;SDS011;41619;42.816;23.226;2023-07-20T11:09:05;14.23;;;3.22;;
55314;SDS011;41619;42.816;23.226;2023-07-20T11:11:33;16.15;;;2.55;;
55314;SDS011;41619;42.816;23.226;2023-07-20T11:14:01;13.20;;;2.70;;
55314;SDS011;41619;42.816;23.226;2023-07-20T11:16:38;11.52;;;2.75;;
55314;SDS011;41619;42.816;23.226;2023-07-20T11:19:05;12.57;;;2.75;;
55314;SDS011;41619;42.816;23.226;2023-07-20T11:21:41;6.80;;;2.42;;
55314;SDS011;41619;42.816;23.226;2023-07-20T11:24:07;10.27;;;2.42;;
55314;SDS011;41619;42.816;23.226;2023-07-20T11:26:41;7.78;;;3.00;;
55314;SDS011;41619;42.816;23.226;2023-07-20T11:29:11;13.45;;;2.50;;
55314;SDS011;41619;42.816;23.226;2023-07-20T11:31:41;9.80;;;2.85;;
55314;SDS011;41619;42.816;23.226;2023-07-20T11:34:10;12.70;;;2.78;;
55314;SDS011;41619;42.816;23.226;2023-07-20T11:36:38;14.35;;;3.50;;
55314;SDS011;41619;42.816;23.226;2023-07-20T11:39:08;10.98;;;3.00;;
55314;SDS011;41619;42.816;23.226;2023-07-20T11:41:34;8.25;;;2.95;;
55314;SDS011;41619;42.816;23.226;2023-07-20T11:44:00;11.38;;;3.65;;
55314;SDS011;41619;42.816;23.226;2023-07-20T11:46:27;13.15;;;3.13;;
55314;SDS011;41619;42.816;23.226;2023-07-20T11:48:57;9.80;;;2.92;;
55314;SDS011;41619;42.816;23.226;2023-07-20T11:51:24;12.70;;;2.67;;
55314;SDS011;41619;42.816;23.226;2023-07-20T11:53:51;10.30;;;2.80;;
55314;SDS011;41619;42.816;23.226;2023-07-20T11:56:16;13.07;;;2.67;;
55314;SDS011;41619;42.816;23.226;2023-07-20T11:58:43;14.10;;;3.10;;
55314;SDS011;41619;42.816;23.226;2023-07-20T12:01:09;9.83;;;3.30;;
55314;SDS011;41619;42.816;23.226;2023-07-20T12:03:36;15.23;;;3.13;;
55314;SDS011;41619;42.816;23.226;2023-07-20T12:06:10;12.98;;;3.00;;
55314;SDS011;41619;42.816;23.226;2023-07-20T12:08:43;13.30;;;3.50;;
55314;SDS011;41619;42.816;23.226;2023-07-20T12:11:11;10.95;;;3.28;;
55314;SDS011;41619;42.816;23.226;2023-07-20T12:16:15;12.40;;;3.30;;
55314;SDS011;41619;42.816;23.226;2023-07-20T12:18:42;14.55;;;3.45;;
55314;SDS011;41619;42.816;23.226;2023-07-20T12:21:08;16.15;;;2.90;;
55314;SDS011;41619;42.816;23.226;2023-07-20T12:23:35;10.38;;;3.65;;
55314;SDS011;41619;42.816;23.226;2023-07-20T12:28:28;12.10;;;3.38;;
55314;SDS011;41619;42.816;23.226;2023-07-20T12:30:54;12.27;;;2.78;;
55314;SDS011;41619;42.816;23.226;2023-07-20T12:33:23;15.32;;;3.03;;
55314;SDS011;41619;42.816;23.226;2023-07-20T12:35:51;13.32;;;3.40;;
55314;SDS011;41619;42.816;23.226;2023-07-20T12:38:20;10.00;;;2.83;;
55314;SDS011;41619;42.816;23.226;2023-07-20T12:40:46;12.40;;;2.90;;
55314;SDS011;41619;42.816;23.226;2023-07-20T12:43:11;9.38;;;2.80;;
55314;SDS011;41619;42.816;23.226;2023-07-20T12:45:37;12.38;;;3.13;;
55314;SDS011;41619;42.816;23.226;2023-07-20T12:48:02;8.02;;;2.60;;
55314;SDS011;41619;42.816;23.226;2023-07-20T12:50:28;11.45;;;3.08;;
55314;SDS011;41619;42.816;23.226;2023-07-20T12:52:53;10.18;;;2.70;;
55314;SDS011;41619;42.816;23.226;2023-07-20T12:55:18;8.25;;;2.78;;
55314;SDS011;41619;42.816;23.226;2023-07-20T12:57:45;11.68;;;2.58;;
55314;SDS011;41619;42.816;23.226;2023-07-20T13:00:11;8.95;;;2.83;;
55314;SDS011;41619;42.816;23.226;2023-07-20T13:02:37;11.95;;;2.80;;
55314;SDS011;41619;42.816;23.226;2023-07-20T13:05:03;13.05;;;2.97;;
55314;SDS011;41619;42.816;23.226;2023-07-20T13:07:32;8.13;;;2.70;;
55314;SDS011;41619;42.816;23.226;2023-07-20T13:10:04;15.38;;;2.97;;
55314;SDS011;41619;42.816;23.226;2023-07-20T13:12:31;8.07;;;2.50;;
55314;SDS011;41619;42.816;23.226;2023-07-20T13:14:58;8.50;;;2.58;;
55314;SDS011;41619;42.816;23.226;2023-07-20T13:17:26;11.63;;;3.05;;
55314;SDS011;41619;42.816;23.226;2023-07-20T13:19:55;8.18;;;3.33;;
55314;SDS011;41619;42.816;23.226;2023-07-20T13:22:20;15.32;;;2.67;;
55314;SDS011;41619;42.816;23.226;2023-07-20T13:24:46;18.35;;;3.35;;
55314;SDS011;41619;42.816;23.226;2023-07-20T13:27:18;9.20;;;2.60;;
55314;SDS011;41619;42.816;23.226;2023-07-20T13:29:45;8.13;;;2.85;;
55314;SDS011;41619;42.816;23.226;2023-07-20T13:32:13;9.15;;;2.50;;
55314;SDS011;41619;42.816;23.226;2023-07-20T13:34:40;13.50;;;2.50;;
55314;SDS011;41619;42.816;23.226;2023-07-20T13:37:05;7.40;;;2.70;;
55314;SDS011;41619;42.816;23.226;2023-07-20T13:39:31;16.35;;;3.42;;
55314;SDS011;41619;42.816;23.226;2023-07-20T13:41:56;10.73;;;2.90;;
55314;SDS011;41619;42.816;23.226;2023-07-20T13:44:21;11.38;;;2.50;;
55314;SDS011;41619;42.816;23.226;2023-07-20T13:46:47;5.55;;;2.10;;
55314;SDS011;41619;42.816;23.226;2023-07-20T13:49:13;13.25;;;2.88;;
55314;SDS011;41619;42.816;23.226;2023-07-20T13:51:39;9.07;;;2.55;;
55314;SDS011;41619;42.816;23.226;2023-07-20T13:54:05;15.40;;;2.55;;
55314;SDS011;41619;42.816;23.226;2023-07-20T13:56:31;8.95;;;2.85;;
55314;SDS011;41619;42.816;23.226;2023-07-20T13:58:56;19.83;;;2.95;;
55314;SDS011;41619;42.816;23.226;2023-07-20T14:01:22;7.80;;;2.67;;
55314;SDS011;41619;42.816;23.226;2023-07-20T14:03:49;13.95;;;2.63;;
55314;SDS011;41619;42.816;23.226;2023-07-20T14:06:15;9.02;;;2.55;;
55314;SDS011;41619;42.816;23.226;2023-07-20T14:08:41;15.95;;;3.58;;
55314;SDS011;41619;42.816;23.226;2023-07-20T14:11:06;12.82;;;2.58;;
55314;SDS011;41619;42.816;23.226;2023-07-20T14:13:32;10.35;;;2.55;;
55314;SDS011;41619;42.816;23.226;2023-07-20T14:15:58;8.63;;;2.72;;
55314;SDS011;41619;42.816;23.226;2023-07-20T14:18:23;11.55;;;2.67;;
55314;SDS011;41619;42.816;23.226;2023-07-20T14:20:49;12.90;;;3.05;;
55314;SDS011;41619;42.816;23.226;2023-07-20T14:23:14;16.77;;;2.88;;
55314;SDS011;41619;42.816;23.226;2023-07-20T14:25:40;12.63;;;2.90;;
55314;SDS011;41619;42.816;23.226;2023-07-20T14:28:05;15.30;;;2.80;;
55314;SDS011;41619;42.816;23.226;2023-07-20T14:30:31;13.23;;;2.33;;
55314;SDS011;41619;42.816;23.226;2023-07-20T14:32:56;6.18;;;2.42;;
55314;SDS011;41619;42.816;23.226;2023-07-20T14:35:21;12.90;;;2.53;;
55314;SDS011;41619;42.816;23.226;2023-07-20T14:37:47;13.63;;;3.10;;
55314;SDS011;41619;42.816;23.226;2023-07-20T14:40:13;10.18;;;2.38;;
55314;SDS011;41619;42.816;23.226;2023-07-20T14:42:39;9.30;;;2.58;;
55314;SDS011;41619;42.816;23.226;2023-07-20T14:45:04;8.32;;;2.25;;
55314;SDS011;41619;42.816;23.226;2023-07-20T14:47:31;8.63;;;2.53;;